Time;durP1;ratioP1;P1;durP2;ratioP2;P2;SDS_P1;SDS_P2;PMS_P1;PMS_P2;Temp;Humidity;BMP_temperature;BMP_pressure;BME280_temperature;BME280_humidity;BME280_pressure;Samples;Min_cycle;Max_cycle;Signal;HPM_P1;HPM_P2
2023/04/13 00:02:14;;;;;;;1.73;0.80;;;20.00;99.90;;;;;;5114167;28;20193;-78
2023/04/13 00:04:42;;;;;;;1.17;0.70;;;20.50;99.90;;;;;;5107596;28;20186;-77
2023/04/13 00:07:13;;;;;;;1.53;0.80;;;20.60;99.90;;;;;;5104934;28;20275;-77
2023/04/13 00:09:41;;;;;;;1.67;0.50;;;20.50;99.90;;;;;;5105107;28;20680;-78
2023/04/13 00:12:09;;;;;;;3.63;0.70;;;20.40;99.90;;;;;;5114962;28;20263;-72
2023/04/13 00:14:38;;;;;;;1.37;0.70;;;20.30;99.90;;;;;;5098336;28;20197;-76
2023/04/13 00:17:05;;;;;;;1.00;0.80;;;20.30;99.90;;;;;;5095308;28;20221;-75
2023/04/13 00:19:36;;;;;;;1.90;0.67;;;20.30;99.90;;;;;;5104410;28;20568;-76
2023/04/13 00:22:08;;;;;;;2.43;0.70;;;20.30;99.90;;;;;;5114947;28;20637;-76
2023/04/13 00:24:36;;;;;;;1.40;0.80;;;20.20;99.90;;;;;;5114271;28;20319;-76
2023/04/13 00:27:04;;;;;;;1.73;0.60;;;20.10;99.90;;;;;;5099427;28;20252;-75
2023/04/13 00:29:31;;;;;;;3.77;1.00;;;20.00;99.90;;;;;;5094665;28;20234;-75
2023/04/13 00:32:00;;;;;;;2.13;0.80;;;19.90;99.90;;;;;;5102806;28;20186;-75
2023/04/13 00:34:28;;;;;;;1.17;0.80;;;19.90;99.90;;;;;;5114709;28;20182;-74
2023/04/13 00:36:56;;;;;;;0.93;0.77;;;20.00;99.90;;;;;;5114741;28;20211;-70
2023/04/13 00:39:26;;;;;;;0.90;0.50;;;20.20;99.90;;;;;;5113063;28;20647;-73
2023/04/13 00:41:54;;;;;;;2.63;0.70;;;20.30;99.90;;;;;;5114870;28;20178;-71
2023/04/13 00:44:22;;;;;;;1.10;0.63;;;21.10;99.90;;;;;;5104222;28;20194;-72
2023/04/13 00:46:53;;;;;;;2.20;0.50;;;21.60;99.90;;;;;;5110546;28;21187;-75
2023/04/13 00:49:21;;;;;;;1.87;0.60;;;21.90;99.90;;;;;;5112405;28;20183;-75
2023/04/13 00:51:50;;;;;;;1.43;0.73;;;21.80;99.90;;;;;;5108448;28;20324;-75
2023/04/13 00:54:19;;;;;;;2.97;0.70;;;23.10;99.90;;;;;;5101092;28;20179;-75
2023/04/13 00:56:47;;;;;;;2.17;0.73;;;23.90;99.90;;;;;;5105744;28;20224;-75
2023/04/13 00:59:16;;;;;;;1.47;0.50;;;24.30;99.90;;;;;;5100458;28;20244;-75
2023/04/13 01:01:49;;;;;;;1.30;0.47;;;24.80;99.90;;;;;;5092103;28;20194;-75
2023/04/13 01:04:18;;;;;;;2.30;0.33;;;25.10;99.90;;;;;;5092598;28;20224;-75
2023/04/13 01:07:03;;;;;;;1.27;0.60;;;25.90;99.90;;;;;;5095779;28;20214;-77
2023/04/13 01:09:49;;;;;;;1.83;0.50;;;26.20;99.90;;;;;;5093515;28;20182;-77
2023/04/13 01:12:29;;;;;;;1.20;0.40;;;25.70;99.90;;;;;;5093565;28;20646;-76
2023/04/13 01:15:17;;;;;;;1.53;0.60;;;26.00;99.90;;;;;;5093643;28;20183;-76
2023/04/13 01:17:56;;;;;;;1.17;0.40;;;26.50;99.90;;;;;;5092986;28;20704;-77
2023/04/13 01:20:28;;;;;;;0.80;0.50;;;26.70;99.90;;;;;;5093581;28;20657;-77
2023/04/13 01:22:59;;;;;;;3.40;0.60;;;25.30;99.90;;;;;;5093518;28;20179;-75
2023/04/13 01:25:56;;;;;;;1.27;0.47;;;24.70;99.90;;;;;;5092551;28;20175;-77
2023/04/13 01:28:26;;;;;;;2.17;0.50;;;24.00;99.90;;;;;;5093427;28;20175;-77
2023/04/13 01:30:56;;;;;;;1.30;0.47;;;23.30;99.90;;;;;;5093402;28;20249;-77
2023/04/13 01:33:24;;;;;;;1.97;0.50;;;22.90;99.90;;;;;;5093185;28;20202;-77
2023/04/13 01:35:53;;;;;;;0.73;0.50;;;22.70;99.90;;;;;;5093311;28;20209;-77
2023/04/13 01:38:24;;;;;;;1.87;0.40;;;22.60;99.90;;;;;;5092475;28;20240;-77
2023/04/13 01:40:52;;;;;;;4.23;0.60;;;23.90;99.90;;;;;;5093161;28;20206;-77
2023/04/13 01:43:27;;;;;;;1.40;0.37;;;25.20;99.90;;;;;;5093166;28;20179;-77
2023/04/13 01:46:10;;;;;;;1.57;0.30;;;26.50;99.90;;;;;;5093060;28;20202;-78
2023/04/13 01:48:48;;;;;;;1.03;0.60;;;26.30;99.90;;;;;;5093188;28;20171;-77
2023/04/13 01:51:33;;;;;;;2.67;0.40;;;25.60;99.90;;;;;;5092910;28;20275;-76
2023/04/13 01:54:20;;;;;;;3.90;0.50;;;25.10;99.90;;;;;;5092977;28;20178;-77
2023/04/13 01:56:49;;;;;;;0.87;0.50;;;24.20;99.90;;;;;;5092620;28;20227;-75
2023/04/13 01:59:18;;;;;;;2.33;0.47;;;23.70;99.90;;;;;;5092867;28;20187;-76
2023/04/13 02:01:47;;;;;;;2.23;0.60;;;23.30;99.90;;;;;;5092800;28;20263;-76
2023/04/13 02:04:15;;;;;;;1.33;0.50;;;23.20;99.90;;;;;;5092643;28;20214;-76
2023/04/13 02:06:43;;;;;;;2.00;0.43;;;24.10;99.90;;;;;;5092670;28;20183;-77
2023/04/13 02:09:11;;;;;;;1.33;0.50;;;25.40;99.90;;;;;;5092639;28;20706;-76
2023/04/13 02:11:39;;;;;;;0.90;0.40;;;26.20;99.90;;;;;;5092610;28;20181;-78
2023/04/13 02:14:08;;;;;;;0.83;0.47;;;26.70;99.90;;;;;;5092472;28;20183;-79
2023/04/13 02:16:36;;;;;;;3.20;0.60;;;27.00;99.90;;;;;;5093822;28;20264;-79
2023/04/13 02:19:07;;;;;;;1.40;0.40;;;26.60;99.90;;;;;;5093877;28;20231;-77
2023/04/13 02:21:35;;;;;;;0.87;0.40;;;25.90;99.90;;;;;;5092238;28;20179;-78
2023/04/13 02:24:02;;;;;;;2.57;0.40;;;26.00;99.90;;;;;;5092510;28;20175;-77
2023/04/13 02:26:30;;;;;;;3.47;0.60;;;26.40;99.90;;;;;;5092222;28;20695;-78
2023/04/13 02:28:59;;;;;;;1.37;0.37;;;26.20;99.90;;;;;;5100755;28;20250;-78
2023/04/13 02:31:30;;;;;;;1.27;0.40;;;25.50;99.90;;;;;;5112350;28;20186;-77
2023/04/13 02:33:58;;;;;;;1.53;0.40;;;24.60;99.90;;;;;;5111458;28;20341;-77
2023/04/13 02:36:26;;;;;;;2.30;0.60;;;24.10;99.90;;;;;;5112484;28;20562;-77
2023/04/13 02:38:56;;;;;;;2.00;0.57;;;23.90;99.90;;;;;;5111320;28;20183;-75
2023/04/13 02:41:24;;;;;;;1.33;0.53;;;23.90;99.90;;;;;;5112279;28;20175;-75
2023/04/13 02:43:52;;;;;;;2.33;0.43;;;23.70;99.90;;;;;;5112591;28;20189;-72
2023/04/13 02:46:22;;;;;;;2.17;0.60;;;23.50;99.90;;;;;;5112266;28;20178;-75
2023/04/13 02:48:50;;;;;;;0.90;0.40;;;23.60;99.90;;;;;;5111014;28;20189;-76
2023/04/13 02:51:17;;;;;;;3.80;0.93;;;23.60;99.90;;;;;;5111908;28;20239;-72
2023/04/13 02:53:45;;;;;;;1.10;0.47;;;23.80;99.90;;;;;;5112214;28;20163;-74
2023/04/13 02:56:14;;;;;;;1.23;0.60;;;24.70;99.90;;;;;;5112074;28;20263;-74
2023/04/13 02:58:45;;;;;;;1.80;0.50;;;25.00;99.90;;;;;;5108317;28;20187;-75
2023/04/13 03:01:13;;;;;;;2.23;0.70;;;24.60;99.90;;;;;;5110449;28;20213;-74
2023/04/13 03:03:41;;;;;;;3.37;0.60;;;24.20;99.90;;;;;;5112286;28;20219;-75
2023/04/13 03:06:09;;;;;;;2.10;0.60;;;24.40;99.90;;;;;;5112011;28;20170;-75
2023/04/13 03:08:37;;;;;;;0.63;0.33;;;24.60;99.90;;;;;;5112214;28;20217;-74
2023/04/13 03:11:05;;;;;;;1.20;0.43;;;25.40;99.90;;;;;;5111932;28;20525;-75
2023/04/13 03:13:35;;;;;;;3.37;0.50;;;26.00;99.90;;;;;;5112028;28;20193;-77
2023/04/13 03:16:03;;;;;;;2.93;0.50;;;26.20;99.90;;;;;;5111914;28;20255;-74
2023/04/13 03:18:31;;;;;;;1.63;0.40;;;26.40;99.90;;;;;;5111905;28;20720;-72
2023/04/13 03:21:00;;;;;;;0.93;0.50;;;26.80;99.90;;;;;;5110621;28;20731;-78
2023/04/13 03:23:29;;;;;;;1.87;0.50;;;26.80;99.90;;;;;;5111542;28;20182;-74
2023/04/13 03:25:57;;;;;;;2.20;0.50;;;27.10;99.90;;;;;;5111519;28;20281;-74
2023/04/13 03:28:25;;;;;;;1.07;0.40;;;27.10;99.90;;;;;;5111794;28;20175;-75
2023/04/13 03:30:52;;;;;;;0.87;0.40;;;26.70;99.90;;;;;;5111824;28;20190;-76
2023/04/13 03:33:20;;;;;;;5.47;0.77;;;26.60;99.90;;;;;;5111652;28;20586;-76
2023/04/13 03:35:48;;;;;;;1.50;0.40;;;26.50;99.90;;;;;;5111813;28;20175;-75
2023/04/13 03:38:16;;;;;;;1.10;0.40;;;26.70;99.90;;;;;;5114093;28;20550;-75
2023/04/13 03:40:44;;;;;;;1.50;0.40;;;27.20;99.90;;;;;;5112965;28;20875;-76
2023/04/13 03:43:12;;;;;;;1.77;0.47;;;27.10;99.90;;;;;;5113158;28;20239;-74
2023/04/13 03:45:40;;;;;;;1.70;0.40;;;27.40;99.90;;;;;;5112277;28;20182;-75
2023/04/13 03:48:09;;;;;;;1.70;0.70;;;27.30;99.90;;;;;;5100925;28;20673;-72
2023/04/13 03:50:37;;;;;;;2.53;0.67;;;26.50;99.90;;;;;;5102450;28;20183;-74
2023/04/13 03:53:05;;;;;;;1.07;0.40;;;26.00;99.90;;;;;;5099965;28;20182;-72
2023/04/13 03:55:33;;;;;;;1.67;0.60;;;25.20;99.90;;;;;;5096037;28;20263;-75
2023/04/13 03:58:00;;;;;;;0.63;0.40;;;24.40;99.90;;;;;;5099891;28;20674;-71
2023/04/13 04:00:29;;;;;;;1.50;0.60;;;24.40;99.90;;;;;;5108661;28;20634;-71
2023/04/13 04:02:56;;;;;;;2.13;0.60;;;24.60;99.90;;;;;;5112729;28;20178;-76
2023/04/13 04:05:25;;;;;;;3.87;0.90;;;24.50;99.90;;;;;;5115366;28;20174;-78
2023/04/13 04:07:52;;;;;;;2.13;1.00;;;24.50;99.90;;;;;;5113680;28;20193;-76
2023/04/13 04:10:20;;;;;;;1.53;0.60;;;24.70;99.90;;;;;;5105364;28;20175;-76
2023/04/13 04:12:51;;;;;;;1.40;0.57;;;24.70;99.90;;;;;;5105503;28;20175;-75
2023/04/13 04:15:19;;;;;;;1.87;0.73;;;24.60;99.90;;;;;;5104449;28;20202;-77
2023/04/13 04:17:46;;;;;;;4.40;0.50;;;24.50;99.90;;;;;;5104865;28;20286;-76
2023/04/13 04:20:15;;;;;;;3.83;0.70;;;24.20;99.90;;;;;;5104945;28;20210;-74
2023/04/13 04:22:43;;;;;;;0.93;0.40;;;24.30;99.90;;;;;;5104319;28;20179;-72
2023/04/13 04:25:11;;;;;;;3.73;0.60;;;24.30;99.90;;;;;;5103665;28;20178;-77
2023/04/13 04:27:45;;;;;;;0.70;0.50;;;24.00;99.90;;;;;;5102265;28;20566;-75
2023/04/13 04:30:13;;;;;;;2.77;0.73;;;23.70;99.90;;;;;;5103025;28;20286;-76
2023/04/13 04:32:42;;;;;;;2.70;0.40;;;23.50;99.90;;;;;;5102141;28;20234;-74
2023/04/13 04:35:13;;;;;;;0.93;0.40;;;23.30;99.90;;;;;;5103516;28;20201;-77
2023/04/13 04:37:41;;;;;;;2.03;0.53;;;23.20;99.90;;;;;;5103741;28;20209;-72
2023/04/13 04:40:09;;;;;;;1.90;0.60;;;23.80;99.90;;;;;;5104445;28;20182;-75
2023/04/13 04:42:40;;;;;;;2.00;0.70;;;24.30;99.90;;;;;;5106775;28;20558;-72
2023/04/13 04:45:15;;;;;;;1.00;0.40;;;24.50;99.90;;;;;;5102248;28;20547;-76
2023/04/13 04:47:43;;;;;;;2.17;0.47;;;25.00;99.90;;;;;;5103425;28;20248;-74
2023/04/13 04:50:13;;;;;;;1.37;0.50;;;25.30;99.90;;;;;;5103042;28;20185;-75
2023/04/13 04:52:44;;;;;;;0.83;0.40;;;25.00;99.90;;;;;;5102665;28;20239;-75
2023/04/13 04:55:12;;;;;;;0.80;0.30;;;25.00;99.90;;;;;;5104629;28;20186;-78
2023/04/13 04:57:40;;;;;;;1.83;0.60;;;24.60;99.90;;;;;;5102477;28;20239;-76
2023/04/13 05:00:14;;;;;;;1.80;0.50;;;24.50;99.90;;;;;;5105346;28;20171;-78
2023/04/13 05:02:42;;;;;;;1.27;0.60;;;24.20;99.90;;;;;;5112077;28;20208;-75
2023/04/13 05:05:10;;;;;;;1.73;0.60;;;24.00;99.90;;;;;;5111626;28;20179;-77
2023/04/13 05:07:38;;;;;;;4.70;0.80;;;23.90;99.90;;;;;;5114090;28;20205;-74
2023/04/13 05:10:12;;;;;;;3.40;0.60;;;23.60;99.90;;;;;;5108613;27;20673;-76
2023/04/13 05:12:40;;;;;;;1.37;0.60;;;23.30;99.90;;;;;;5095543;28;20209;-78
2023/04/13 05:15:09;;;;;;;1.37;0.50;;;23.10;99.90;;;;;;5113973;28;20181;-77
2023/04/13 05:17:37;;;;;;;1.83;0.70;;;22.90;99.90;;;;;;5112407;28;20268;-80
2023/04/13 05:20:06;;;;;;;2.13;0.63;;;22.90;99.90;;;;;;5114065;28;20170;-76
2023/04/13 05:22:33;;;;;;;2.63;0.60;;;22.70;99.90;;;;;;5113339;28;20193;-75
2023/04/13 05:25:01;;;;;;;1.60;0.60;;;22.70;99.90;;;;;;5113573;28;20542;-76
2023/04/13 05:27:29;;;;;;;2.27;0.63;;;22.60;99.90;;;;;;5113577;28;20200;-76
2023/04/13 05:29:57;;;;;;;1.93;0.60;;;22.50;99.90;;;;;;5108073;28;20183;-75
2023/04/13 05:32:25;;;;;;;1.37;0.63;;;22.50;99.90;;;;;;5093211;28;20320;-74
2023/04/13 05:34:53;;;;;;;2.17;0.60;;;22.70;99.90;;;;;;5093128;28;20183;-76
2023/04/13 05:37:21;;;;;;;2.20;0.60;;;22.80;99.90;;;;;;5093027;28;20297;-75
2023/04/13 05:39:48;;;;;;;1.47;0.43;;;22.90;99.90;;;;;;5092952;28;20187;-77
2023/04/13 05:42:16;;;;;;;1.83;0.87;;;22.90;99.90;;;;;;5091672;28;20705;-76
2023/04/13 05:44:48;;;;;;;1.40;0.63;;;22.90;99.90;;;;;;5093050;28;20183;-76
2023/04/13 05:47:17;;;;;;;1.00;0.60;;;22.90;99.90;;;;;;5092756;28;20185;-75
2023/04/13 05:49:45;;;;;;;2.97;0.60;;;22.80;99.90;;;;;;5093167;28;20222;-74
2023/04/13 05:52:13;;;;;;;1.30;0.50;;;22.80;99.90;;;;;;5092755;28;20190;-76
2023/04/13 05:54:41;;;;;;;3.93;0.80;;;22.80;99.90;;;;;;5092899;28;20631;-77
2023/04/13 05:57:09;;;;;;;1.27;0.40;;;22.80;99.90;;;;;;5092743;28;20667;-76
2023/04/13 05:59:39;;;;;;;2.43;0.50;;;22.70;99.90;;;;;;5092756;28;20631;-77
2023/04/13 06:02:08;;;;;;;0.70;0.50;;;22.50;99.90;;;;;;5092672;28;20673;-74
2023/04/13 06:04:35;;;;;;;3.43;0.53;;;22.40;99.90;;;;;;5093734;28;20205;-78
2023/04/13 06:07:04;;;;;;;0.57;0.30;;;22.30;99.90;;;;;;5091097;28;20197;-74
2023/04/13 06:09:32;;;;;;;1.57;0.50;;;22.10;99.90;;;;;;5092452;28;20171;-78
2023/04/13 06:12:01;;;;;;;1.13;0.50;;;22.00;99.90;;;;;;5093680;28;20580;-75
2023/04/13 06:14:29;;;;;;;1.60;0.57;;;21.90;99.90;;;;;;5092444;28;20535;-76
2023/04/13 06:17:00;;;;;;;2.97;0.50;;;21.90;99.90;;;;;;5090865;28;20221;-77
2023/04/13 06:19:28;;;;;;;1.10;0.43;;;22.00;99.90;;;;;;5101638;28;20271;-77
2023/04/13 06:21:57;;;;;;;4.03;0.60;;;22.00;99.90;;;;;;5110912;28;20309;-76
2023/04/13 06:24:26;;;;;;;1.47;0.50;;;22.00;99.90;;;;;;5112223;28;20177;-76
2023/04/13 06:26:54;;;;;;;1.90;0.60;;;22.10;99.90;;;;;;5104137;28;20178;-77
2023/04/13 06:29:22;;;;;;;1.83;0.57;;;22.10;99.90;;;;;;5102156;28;20179;-75
2023/04/13 06:31:50;;;;;;;3.63;0.80;;;22.10;99.90;;;;;;5110681;28;20184;-73
2023/04/13 06:34:19;;;;;;;1.73;0.63;;;22.10;99.90;;;;;;5092232;28;20245;-77
2023/04/13 06:36:46;;;;;;;1.83;0.50;;;22.10;99.90;;;;;;5093102;28;20290;-77
2023/04/13 06:39:14;;;;;;;3.87;0.70;;;22.00;99.90;;;;;;5092149;28;20178;-74
2023/04/13 06:41:42;;;;;;;2.77;0.40;;;21.90;99.90;;;;;;5091898;28;20189;-77
2023/04/13 06:44:10;;;;;;;0.90;0.50;;;21.80;99.90;;;;;;5092089;28;20220;-77
2023/04/13 06:46:38;;;;;;;2.47;0.50;;;21.80;99.90;;;;;;5095516;28;20186;-77
2023/04/13 06:49:06;;;;;;;2.30;0.83;;;21.80;99.90;;;;;;5112424;28;20238;-80
2023/04/13 06:51:34;;;;;;;1.43;0.50;;;21.80;99.90;;;;;;5111857;28;20216;-73
2023/04/13 06:54:01;;;;;;;1.73;0.67;;;21.90;99.90;;;;;;5111193;28;20178;-77
2023/04/13 06:56:33;;;;;;;1.23;0.40;;;21.90;99.90;;;;;;5107017;28;20203;-80
2023/04/13 06:59:01;;;;;;;1.57;0.60;;;21.90;99.90;;;;;;5091693;28;20187;-78
2023/04/13 07:01:29;;;;;;;2.50;0.50;;;21.90;99.90;;;;;;5107106;28;20182;-78
2023/04/13 07:04:01;;;;;;;1.53;0.47;;;21.90;99.90;;;;;;5111733;28;20178;-79
2023/04/13 07:06:30;;;;;;;2.40;0.60;;;21.90;99.90;;;;;;5106578;28;20202;-76
2023/04/13 07:08:58;;;;;;;0.67;0.50;;;21.80;99.90;;;;;;5091415;28;20186;-78
2023/04/13 07:11:26;;;;;;;1.47;0.30;;;21.70;99.90;;;;;;5090862;28;20198;-78
2023/04/13 07:13:54;;;;;;;1.63;0.53;;;21.70;99.90;;;;;;5094901;28;20190;-78
2023/04/13 07:16:25;;;;;;;3.17;0.60;;;21.60;99.90;;;;;;5093257;28;20243;-78
2023/04/13 07:18:53;;;;;;;2.80;0.70;;;21.60;99.90;;;;;;5096618;28;20230;-78
2023/04/13 07:21:21;;;;;;;2.13;0.67;;;21.50;99.90;;;;;;5091258;28;20175;-75
2023/04/13 07:23:49;;;;;;;3.87;0.40;;;21.30;99.90;;;;;;5107452;28;20661;-75
2023/04/13 07:26:17;;;;;;;1.03;0.40;;;21.00;99.90;;;;;;5093967;28;20610;-77
2023/04/13 07:28:45;;;;;;;1.33;0.60;;;20.80;99.90;;;;;;5098621;28;20228;-76
2023/04/13 07:31:13;;;;;;;2.30;0.70;;;20.60;99.90;;;;;;5111598;28;20210;-75
2023/04/13 07:33:40;;;;;;;1.93;0.60;;;20.50;99.90;;;;;;5095002;28;20193;-75
2023/04/13 07:36:10;;;;;;;1.07;0.40;;;20.20;99.90;;;;;;5092098;28;20232;-75
2023/04/13 07:38:38;;;;;;;1.60;0.60;;;20.00;99.90;;;;;;5094588;28;20236;-78
2023/04/13 07:41:06;;;;;;;2.67;0.60;;;19.70;99.90;;;;;;5095401;28;20707;-76
2023/04/13 07:43:34;;;;;;;3.93;0.80;;;19.60;99.90;;;;;;5095150;28;20260;-77
2023/04/13 07:46:10;;;;;;;3.23;0.83;;;19.40;99.90;;;;;;5095042;28;20197;-76
2023/04/13 07:48:38;;;;;;;0.97;0.57;;;19.10;99.90;;;;;;5095237;28;20695;-73
2023/04/13 07:51:06;;;;;;;1.70;0.57;;;19.00;99.90;;;;;;5103740;28;20182;-75
2023/04/13 07:53:34;;;;;;;2.50;0.60;;;18.90;99.90;;;;;;5100541;28;20645;-75
2023/04/13 07:56:01;;;;;;;4.23;1.00;;;18.70;99.90;;;;;;5112107;28;20212;-75
2023/04/13 07:58:32;;;;;;;3.03;1.10;;;18.60;99.90;;;;;;5094719;28;20228;-68
2023/04/13 08:01:04;;;;;;;1.90;0.70;;;18.50;99.90;;;;;;5100321;28;20316;-73
2023/04/13 08:03:33;;;;;;;3.73;0.93;;;18.50;99.90;;;;;;5114865;28;20651;-77
2023/04/13 08:06:01;;;;;;;6.13;1.33;;;18.50;99.90;;;;;;5112721;28;20250;-71
2023/04/13 08:08:29;;;;;;;2.07;1.03;;;18.40;99.90;;;;;;5115212;28;20174;-74
2023/04/13 08:10:56;;;;;;;3.13;1.20;;;18.40;99.90;;;;;;5109520;28;20594;-70
2023/04/13 08:13:25;;;;;;;4.83;1.30;;;18.40;99.90;;;;;;5094715;28;20231;-73
2023/04/13 08:15:55;;;;;;;4.60;1.30;;;18.40;99.90;;;;;;5095389;28;20184;-71
2023/04/13 08:18:31;;;;;;;6.03;1.53;;;18.40;99.90;;;;;;5115149;28;20283;-75
2023/04/13 08:20:59;;;;;;;4.33;1.00;;;18.40;99.90;;;;;;5115190;28;20169;-68
2023/04/13 08:23:27;;;;;;;3.80;1.27;;;18.30;99.90;;;;;;5114777;28;20621;-68
2023/04/13 08:25:55;;;;;;;3.30;1.00;;;18.30;99.90;;;;;;5113056;28;20179;-67
2023/04/13 08:28:22;;;;;;;3.93;1.67;;;18.40;99.90;;;;;;5114899;28;20175;-71
2023/04/13 08:30:50;;;;;;;4.60;2.40;;;18.30;99.90;;;;;;5114798;28;20179;-70
2023/04/13 08:33:18;;;;;;;2.83;1.43;;;18.40;99.90;;;;;;5114755;28;20171;-72
2023/04/13 08:35:46;;;;;;;2.57;1.20;;;18.50;99.90;;;;;;5114715;28;20178;-73
2023/04/13 08:38:14;;;;;;;5.53;1.40;;;18.60;99.90;;;;;;5114607;27;20177;-73
2023/04/13 08:40:45;;;;;;;4.90;1.50;;;18.60;99.90;;;;;;5113275;28;20180;-68
2023/04/13 08:43:13;;;;;;;5.70;1.80;;;18.50;99.90;;;;;;5113203;28;20179;-75
2023/04/13 08:45:42;;;;;;;3.53;1.00;;;18.50;99.90;;;;;;5097892;28;20654;-77
2023/04/13 08:48:12;;;;;;;3.20;0.93;;;18.50;99.90;;;;;;5100263;28;20174;-77
2023/04/13 08:50:42;;;;;;;4.13;1.00;;;18.40;99.90;;;;;;5116603;27;20175;-78
2023/04/13 08:53:09;;;;;;;3.13;0.90;;;18.30;99.90;;;;;;5115778;28;20175;-77
2023/04/13 08:55:45;;;;;;;2.43;1.10;;;18.30;99.90;;;;;;5115343;28;20208;-77
2023/04/13 08:58:23;;;;;;;4.50;1.27;;;18.20;99.90;;;;;;5117073;28;20211;-77
2023/04/13 09:00:55;;;;;;;4.00;1.17;;;18.20;99.90;;;;;;5102143;28;20190;-79
2023/04/13 09:03:29;;;;;;;3.53;1.30;;;18.10;99.90;;;;;;5117259;28;20174;-77
2023/04/13 09:06:03;;;;;;;4.97;1.40;;;18.00;99.90;;;;;;5115389;28;20168;-78
2023/04/13 09:08:36;;;;;;;5.03;1.80;;;18.00;99.90;;;;;;5115200;28;20549;-78
2023/04/13 09:11:04;;;;;;;2.50;1.20;;;18.00;99.90;;;;;;5106585;28;20183;-75
2023/04/13 09:13:35;;;;;;;4.73;1.23;;;18.00;99.90;;;;;;5094644;28;20177;-76
2023/04/13 09:16:04;;;;;;;4.30;1.43;;;17.90;99.90;;;;;;5095261;28;20650;-75
2023/04/13 09:18:32;;;;;;;4.83;1.73;;;17.90;99.90;;;;;;5094554;28;20222;-78
2023/04/13 09:21:00;;;;;;;5.27;1.23;;;17.90;99.90;;;;;;5094584;28;20168;-77
2023/04/13 09:23:28;;;;;;;2.73;1.30;;;17.90;99.90;;;;;;5093976;28;20966;-75
2023/04/13 09:26:08;;;;;;;4.20;1.80;;;17.80;99.90;;;;;;5093986;28;20205;-74
2023/04/13 09:28:56;;;;;;;2.50;1.63;;;17.80;99.90;;;;;;5094248;28;20163;-75
2023/04/13 09:31:24;;;;;;;8.20;1.93;;;17.80;99.90;;;;;;5093712;28;20225;-75
2023/04/13 09:33:53;;;;;;;3.03;1.73;;;17.80;99.90;;;;;;5104428;28;20646;-75
2023/04/13 09:36:21;;;;;;;4.13;1.67;;;17.70;99.90;;;;;;5114025;28;20212;-75
2023/04/13 09:38:54;;;;;;;2.63;1.70;;;17.70;99.90;;;;;;5114447;28;20170;-76
2023/04/13 09:41:32;;;;;;;3.37;1.70;;;17.70;99.90;;;;;;5114250;28;20227;-74
2023/04/13 09:44:01;;;;;;;3.40;1.80;;;17.60;99.90;;;;;;5114094;27;20167;-76
2023/04/13 09:46:29;;;;;;;3.13;1.17;;;17.70;99.90;;;;;;5112800;28;20230;-76
2023/04/13 09:49:04;;;;;;;1.70;1.00;;;17.70;99.90;;;;;;5114171;28;20252;-76
2023/04/13 09:51:40;;;;;;;4.83;1.73;;;17.70;99.90;;;;;;5112318;28;20179;-78
2023/04/13 09:54:10;;;;;;;5.90;2.67;;;17.80;99.90;;;;;;5114115;28;20171;-76
2023/04/13 09:56:53;;;;;;;3.50;2.50;;;17.80;99.90;;;;;;5114058;28;20206;-77
2023/04/13 09:59:22;;;;;;;4.27;1.57;;;17.90;99.90;;;;;;5113160;28;20183;-76
2023/04/13 10:01:51;;;;;;;3.00;1.17;;;17.90;99.90;;;;;;5112249;28;20186;-74
2023/04/13 10:04:19;;;;;;;2.57;1.47;;;17.90;99.90;;;;;;5114079;28;20195;-74
2023/04/13 10:06:47;;;;;;;1.50;1.20;;;17.90;99.90;;;;;;5113459;28;20744;-76
2023/04/13 10:09:15;;;;;;;2.70;1.30;;;18.00;99.90;;;;;;5113931;28;20258;-75
2023/04/13 10:11:50;;;;;;;3.63;1.57;;;17.90;99.90;;;;;;5112407;28;20210;-77
2023/04/13 10:14:35;;;;;;;4.83;1.33;;;17.80;99.90;;;;;;5110560;28;20594;-75
2023/04/13 10:17:27;;;;;;;2.83;1.10;;;17.70;99.90;;;;;;5102735;28;20210;-76
2023/04/13 10:19:59;;;;;;;2.30;0.80;;;17.80;99.90;;;;;;5097078;28;20235;-75
2023/04/13 10:22:28;;;;;;;3.93;1.20;;;17.70;99.90;;;;;;5101975;28;20256;-76
2023/04/13 10:24:56;;;;;;;4.53;1.03;;;17.70;99.90;;;;;;5113552;28;20174;-76
2023/04/13 10:27:27;;;;;;;3.23;1.20;;;17.70;99.90;;;;;;5113221;28;20266;-75
2023/04/13 10:29:55;;;;;;;3.03;1.17;;;17.70;99.90;;;;;;5113426;28;20171;-74
2023/04/13 10:32:27;;;;;;;2.20;1.20;;;17.80;99.90;;;;;;5111446;28;20179;-74
2023/04/13 10:34:55;;;;;;;3.10;1.20;;;17.80;99.90;;;;;;5095675;28;20667;-76
2023/04/13 10:37:30;;;;;;;2.03;0.73;;;17.90;99.90;;;;;;5092559;28;20222;-75
2023/04/13 10:40:09;;;;;;;3.43;0.90;;;17.90;99.90;;;;;;5099507;28;20533;-76
2023/04/13 10:42:45;;;;;;;2.03;0.70;;;17.90;99.90;;;;;;5113205;28;20175;-76
2023/04/13 10:45:29;;;;;;;2.40;1.00;;;17.90;99.90;;;;;;5109903;28;20262;-73
2023/04/13 10:47:57;;;;;;;3.80;1.10;;;17.90;99.90;;;;;;5108119;28;20170;-76
2023/04/13 10:50:26;;;;;;;2.03;1.00;;;17.90;99.90;;;;;;5113059;28;20195;-76
2023/04/13 10:53:04;;;;;;;3.20;1.00;;;17.90;99.90;;;;;;5113215;27;20178;-78
2023/04/13 10:55:34;;;;;;;3.90;1.20;;;17.90;99.90;;;;;;5095879;28;20178;-76
2023/04/13 10:58:02;;;;;;;4.80;1.00;;;17.90;99.90;;;;;;5112988;28;20209;-75
2023/04/13 11:00:31;;;;;;;2.07;1.10;;;17.90;99.90;;;;;;5113051;28;20194;-75
2023/04/13 11:03:01;;;;;;;2.27;1.10;;;17.90;99.90;;;;;;5112626;28;20182;-75
2023/04/13 11:05:29;;;;;;;2.23;1.00;;;17.90;99.90;;;;;;5112836;28;20175;-73
2023/04/13 11:07:57;;;;;;;2.83;1.10;;;17.90;99.90;;;;;;5113156;28;20184;-76
2023/04/13 11:10:28;;;;;;;3.30;1.10;;;17.90;99.90;;;;;;5112961;28;20175;-76
2023/04/13 11:12:59;;;;;;;2.80;1.20;;;17.90;99.90;;;;;;5117460;28;20233;-76
2023/04/13 11:15:32;;;;;;;3.23;1.00;;;17.90;99.90;;;;;;5117127;28;20182;-76
2023/04/13 11:18:02;;;;;;;2.10;0.80;;;17.90;99.90;;;;;;5117045;28;20236;-76
2023/04/13 11:20:38;;;;;;;2.57;0.90;;;17.90;99.90;;;;;;5117056;28;20259;-71
2023/04/13 11:23:14;;;;;;;3.47;1.13;;;17.90;99.90;;;;;;5117120;28;20646;-74
2023/04/13 11:25:53;;;;;;;5.80;1.10;;;17.90;99.90;;;;;;5116960;28;20187;-76
2023/04/13 11:28:35;;;;;;;2.37;0.93;;;17.80;99.90;;;;;;5117126;28;20316;-75
2023/04/13 11:31:03;;;;;;;6.80;1.47;;;17.80;99.90;;;;;;5116789;27;20170;-78
2023/04/13 11:33:32;;;;;;;4.63;0.90;;;17.80;99.90;;;;;;5116983;28;20185;-75
2023/04/13 11:36:01;;;;;;;2.73;0.83;;;17.70;99.90;;;;;;5116724;28;20228;-75
2023/04/13 11:38:29;;;;;;;4.17;1.40;;;17.60;99.90;;;;;;5116668;28;20638;-76
2023/04/13 11:41:07;;;;;;;2.27;0.90;;;17.50;99.90;;;;;;5116722;28;20174;-77
2023/04/13 11:43:36;;;;;;;1.93;1.00;;;17.50;99.90;;;;;;5116382;28;20629;-74
2023/04/13 11:46:04;;;;;;;2.50;0.80;;;17.50;99.90;;;;;;5116708;28;20543;-75
2023/04/13 11:48:32;;;;;;;4.10;0.90;;;17.50;99.90;;;;;;5116729;28;20265;-75
2023/04/13 11:51:00;;;;;;;2.43;1.00;;;17.40;99.90;;;;;;5116439;28;20175;-75
2023/04/13 11:53:28;;;;;;;2.57;1.00;;;17.50;99.90;;;;;;5113585;28;20270;-76
2023/04/13 11:55:56;;;;;;;2.23;0.97;;;17.50;99.90;;;;;;5115894;28;20178;-73
2023/04/13 11:58:24;;;;;;;3.17;1.00;;;17.50;99.90;;;;;;5105668;28;20596;-75
2023/04/13 12:00:54;;;;;;;2.50;0.70;;;17.50;99.90;;;;;;5095602;28;20245;-76
2023/04/13 12:03:21;;;;;;;1.40;0.70;;;17.50;99.90;;;;;;5095942;28;20195;-75
2023/04/13 12:05:59;;;;;;;3.97;0.83;;;17.50;99.90;;;;;;5095742;28;20179;-74
2023/04/13 12:08:28;;;;;;;2.43;0.80;;;17.50;99.90;;;;;;5095874;28;20266;-75
2023/04/13 12:11:05;;;;;;;3.03;0.90;;;17.50;99.90;;;;;;5097342;28;20191;-75
2023/04/13 12:13:52;;;;;;;2.10;1.00;;;17.50;99.90;;;;;;5113231;28;20539;-76
2023/04/13 12:16:28;;;;;;;1.97;0.90;;;17.50;99.90;;;;;;5095757;28;20194;-74
2023/04/13 12:18:56;;;;;;;1.80;0.90;;;17.50;99.90;;;;;;5095291;28;20222;-75
2023/04/13 12:21:25;;;;;;;1.17;1.00;;;17.40;99.90;;;;;;5095447;28;20179;-76
2023/04/13 12:24:00;;;;;;;1.23;0.80;;;17.50;99.90;;;;;;5094616;28;20593;-76
2023/04/13 12:26:32;;;;;;;3.03;0.90;;;17.40;99.90;;;;;;5095461;28;20574;-74
2023/04/13 12:29:02;;;;;;;1.07;0.70;;;17.40;99.90;;;;;;5101168;28;20306;-74
2023/04/13 12:31:43;;;;;;;1.50;0.70;;;17.40;99.90;;;;;;5115456;28;20275;-75
2023/04/13 12:34:10;;;;;;;3.20;0.87;;;17.40;99.90;;;;;;5115523;28;20213;-76
2023/04/13 12:36:38;;;;;;;2.47;0.90;;;17.30;99.90;;;;;;5105307;28;20219;-76
2023/04/13 12:39:06;;;;;;;2.97;1.00;;;17.40;99.90;;;;;;5095330;28;20547;-75
2023/04/13 12:41:34;;;;;;;2.10;0.87;;;17.40;99.90;;;;;;5095211;28;20199;-76
2023/04/13 12:44:02;;;;;;;2.37;0.70;;;17.30;99.90;;;;;;5095168;28;20203;-76
2023/04/13 12:46:31;;;;;;;1.87;0.80;;;17.30;99.90;;;;;;5094778;28;20642;-77
2023/04/13 12:48:58;;;;;;;2.33;1.00;;;17.30;99.90;;;;;;5095026;28;20703;-77
2023/04/13 12:51:26;;;;;;;4.17;0.73;;;17.30;99.90;;;;;;5094962;28;20171;-74
2023/04/13 12:53:54;;;;;;;1.93;0.90;;;17.20;99.90;;;;;;5097563;28;20232;-75
2023/04/13 12:56:23;;;;;;;3.70;0.87;;;17.20;99.90;;;;;;5107087;28;20611;-76
2023/04/13 12:58:51;;;;;;;1.30;0.77;;;17.20;99.90;;;;;;5097758;28;20657;-77
2023/04/13 13:01:18;;;;;;;3.20;0.77;;;17.20;99.90;;;;;;5114484;28;20661;-77
2023/04/13 13:03:46;;;;;;;1.90;0.90;;;17.20;99.90;;;;;;5112776;28;20560;-76